Time;durP1;ratioP1;P1;durP2;ratioP2;P2;SDS_P1;SDS_P2;PMS_P1;PMS_P2;Temp;Humidity;BMP_temperature;BMP_pressure;BME280_temperature;BME280_humidity;BME280_pressure;Samples;Min_cycle;Max_cycle;Signal;HPM_P1;HPM_P2
2023/03/20 00:00:51;;;;;;;6.65;4.35;;;;;;;12.09;61.08;101951.59;5081992;28;20052;-62
2023/03/20 00:03:19;;;;;;;7.07;4.47;;;;;;;12.00;61.04;101934.81;5071315;28;20045;-61
2023/03/20 00:05:48;;;;;;;7.85;4.30;;;;;;;12.10;60.64;101952.44;5076213;28;20497;-61
2023/03/20 00:08:15;;;;;;;9.57;4.60;;;;;;;12.09;60.72;101954.31;5074112;28;20106;-61
2023/03/20 00:10:46;;;;;;;6.95;4.35;;;;;;;12.08;60.53;101954.50;5083667;28;20053;-60
2023/03/20 00:13:21;;;;;;;10.43;5.07;;;;;;;12.08;60.91;101947.25;5080820;28;20389;-62
2023/03/20 00:15:49;;;;;;;7.70;4.43;;;;;;;12.07;61.00;101945.59;5075303;28;20037;-61
2023/03/20 00:18:19;;;;;;;9.43;5.05;;;;;;;12.05;61.02;101948.50;5083076;28;20057;-62
2023/03/20 00:20:50;;;;;;;8.68;4.68;;;;;;;12.02;60.74;101945.38;5082181;28;20060;-62
2023/03/20 00:23:18;;;;;;;7.70;4.85;;;;;;;12.05;60.85;101955.75;5079430;28;20052;-62
2023/03/20 00:25:46;;;;;;;9.23;5.70;;;;;;;12.04;60.73;101954.09;5082106;28;20544;-62
2023/03/20 00:28:41;;;;;;;9.70;5.10;;;;;;;12.02;60.78;101951.59;5081930;28;20048;-61
2023/03/20 00:31:20;;;;;;;11.07;5.40;;;;;;;12.03;60.81;101947.03;5054345;28;20044;-62
2023/03/20 00:33:48;;;;;;;9.15;5.65;;;;;;;12.01;60.81;101935.63;5073480;28;20053;-62
2023/03/20 00:36:16;;;;;;;10.20;5.18;;;;;;;12.00;60.97;101924.03;5073692;28;20093;-62
2023/03/20 00:38:44;;;;;;;9.45;4.97;;;;;;;11.99;60.77;101913.47;5076950;28;20131;-62
2023/03/20 00:41:22;;;;;;;10.07;5.32;;;;;;;11.98;61.05;101911.78;5080327;28;20083;-62
2023/03/20 00:43:54;;;;;;;9.57;4.47;;;;;;;11.97;61.11;101921.75;5084003;28;20106;-62
2023/03/20 00:46:22;;;;;;;9.57;5.45;;;;;;;11.96;60.90;101913.88;5075529;28;20060;-61
2023/03/20 00:48:50;;;;;;;9.23;5.15;;;;;;;11.95;60.89;101909.50;5071649;28;20068;-62
2023/03/20 00:51:19;;;;;;;12.77;5.43;;;;;;;11.94;60.87;101905.16;5076962;28;20053;-61
2023/03/20 00:53:46;;;;;;;7.72;4.90;;;;;;;11.92;60.88;101907.22;5080908;28;20400;-62
2023/03/20 00:56:30;;;;;;;9.40;5.13;;;;;;;11.92;60.99;101896.44;5077726;28;20036;-62
2023/03/20 00:59:00;;;;;;;7.90;4.78;;;;;;;11.90;61.09;101901.22;5080780;28;20044;-61
2023/03/20 01:01:28;;;;;;;11.63;4.82;;;;;;;11.89;60.74;101911.16;5076869;28;20058;-63
2023/03/20 01:03:56;;;;;;;9.50;4.72;;;;;;;11.87;60.83;101917.78;5079711;28;20087;-60
2023/03/20 01:06:24;;;;;;;7.07;5.00;;;;;;;11.80;60.53;101914.25;5075762;28;20041;-62
2023/03/20 01:08:52;;;;;;;7.90;4.85;;;;;;;11.85;60.58;101938.72;5074311;28;20076;-62
2023/03/20 01:11:23;;;;;;;10.98;4.85;;;;;;;11.83;60.64;101938.91;5080249;28;20052;-62
2023/03/20 01:13:52;;;;;;;9.25;5.43;;;;;;;11.83;60.93;101943.47;5082687;28;20053;-62
2023/03/20 01:16:23;;;;;;;7.97;4.95;;;;;;;11.81;60.72;101959.00;5080042;28;20036;-62
2023/03/20 01:18:52;;;;;;;10.30;5.25;;;;;;;11.79;60.72;101953.81;5072900;28;20613;-62
2023/03/20 01:21:20;;;;;;;11.02;5.65;;;;;;;11.79;60.66;101947.59;5070983;28;20112;-62
2023/03/20 01:23:49;;;;;;;10.85;4.97;;;;;;;11.73;60.79;101931.19;5075477;28;20079;-62
2023/03/20 01:26:31;;;;;;;10.90;5.50;;;;;;;11.76;60.33;101929.13;5081696;28;20036;-61
2023/03/20 01:28:59;;;;;;;10.60;5.60;;;;;;;11.75;60.68;101925.59;5075771;28;20087;-62
2023/03/20 01:31:28;;;;;;;8.73;5.82;;;;;;;11.74;60.76;101934.72;5082965;28;20048;-62
2023/03/20 01:33:56;;;;;;;11.13;5.05;;;;;;;11.73;60.86;101933.06;5081031;28;20045;-62
2023/03/20 01:36:24;;;;;;;9.85;5.30;;;;;;;11.73;60.65;101935.75;5070168;28;20044;-62
2023/03/20 01:38:55;;;;;;;14.25;6.00;;;;;;;11.73;60.71;101944.66;5079750;28;20045;-61
2023/03/20 01:41:25;;;;;;;10.32;6.35;;;;;;;11.71;60.81;101935.94;5073674;28;20381;-61
2023/03/20 01:43:53;;;;;;;9.50;6.18;;;;;;;11.71;60.66;101929.72;5075162;28;20048;-61
2023/03/20 01:46:25;;;;;;;13.25;6.80;;;;;;;11.70;60.98;101936.16;5082648;28;20045;-62
2023/03/20 01:49:46;;;;;;;11.60;6.43;;;;;;;11.69;60.82;101931.78;5079110;28;20044;-62
2023/03/20 01:52:14;;;;;;;10.10;6.60;;;;;;;11.68;60.68;101933.66;5068773;28;20055;-62
2023/03/20 01:54:42;;;;;;;11.48;6.10;;;;;;;11.67;60.62;101928.47;5070509;28;20119;-62
2023/03/20 01:57:14;;;;;;;13.65;6.93;;;;;;;11.66;60.76;101924.13;5079294;28;20108;-62
2023/03/20 01:59:47;;;;;;;13.95;7.72;;;;;;;11.63;60.96;101928.03;5081394;28;20074;-62
2023/03/20 02:02:19;;;;;;;11.63;7.03;;;;;;;11.63;60.67;101925.34;5078074;28;20044;-63
2023/03/20 02:04:54;;;;;;;11.98;7.90;;;;;;;11.62;60.92;101918.31;5078702;28;20434;-62
2023/03/20 02:07:24;;;;;;;13.07;7.57;;;;;;;11.61;60.74;101926.59;5078527;28;20053;-61
2023/03/20 02:09:52;;;;;;;10.10;6.80;;;;;;;11.58;60.76;101919.75;5070586;28;20076;-61
2023/03/20 02:12:21;;;;;;;14.05;8.43;;;;;;;11.57;60.66;101923.47;5076475;28;20210;-61
2023/03/20 02:14:51;;;;;;;11.77;7.72;;;;;;;11.54;60.43;101925.75;5079047;28;20476;-62
2023/03/20 02:17:20;;;;;;;11.80;7.40;;;;;;;11.55;60.82;101941.69;5082386;28;20060;-62
2023/03/20 02:20:04;;;;;;;13.05;7.47;;;;;;;11.53;60.89;101957.22;5070303;28;20082;-62
2023/03/20 02:22:53;;;;;;;16.35;8.68;;;;;;;11.52;60.40;101941.25;5081178;28;20064;-62
2023/03/20 02:25:51;;;;;;;16.83;8.52;;;;;;;11.50;60.42;101937.94;5077415;28;20048;-61
2023/03/20 02:28:56;;;;;;;15.32;8.35;;;;;;;11.48;60.68;101948.06;5074222;28;20143;-62
2023/03/20 02:31:46;;;;;;;12.45;7.50;;;;;;;11.48;60.54;101953.47;5073838;28;20087;-61
2023/03/20 02:34:39;;;;;;;11.52;7.63;;;;;;;11.45;60.62;101956.56;5079922;28;20049;-61
2023/03/20 02:37:49;;;;;;;12.63;7.90;;;;;;;11.43;60.31;101956.75;5080058;28;20083;-62
2023/03/20 02:40:25;;;;;;;10.57;7.95;;;;;;;11.41;60.51;101951.56;5065716;28;20072;-62
2023/03/20 02:43:01;;;;;;;13.30;8.23;;;;;;;11.39;60.46;101945.56;5081788;28;20083;-62
2023/03/20 02:45:32;;;;;;;12.80;7.53;;;;;;;11.39;60.48;101931.28;5081208;28;20049;-62
2023/03/20 02:48:11;;;;;;;11.82;7.72;;;;;;;11.32;60.57;101919.66;5077840;28;20080;-62
2023/03/20 02:50:47;;;;;;;16.75;9.13;;;;;;;11.38;60.58;101929.59;5074314;28;20136;-62
2023/03/20 02:53:28;;;;;;;13.82;7.93;;;;;;;11.35;60.39;101925.47;5077385;28;20386;-62
2023/03/20 02:56:02;;;;;;;14.95;7.90;;;;;;;11.34;60.51;101928.34;5075734;28;20045;-61
2023/03/20 02:58:39;;;;;;;14.40;7.75;;;;;;;11.33;60.76;101926.69;5081047;28;20044;-61
2023/03/20 03:01:14;;;;;;;11.95;7.60;;;;;;;11.32;60.59;101916.94;5075808;28;20112;-62
2023/03/20 03:03:46;;;;;;;15.43;8.35;;;;;;;11.33;60.55;101926.69;5082092;28;20055;-62
2023/03/20 03:06:19;;;;;;;15.45;8.07;;;;;;;11.32;60.50;101916.94;5081809;28;20043;-62
2023/03/20 03:08:54;;;;;;;14.50;9.27;;;;;;;11.31;60.60;101920.66;5081188;28;20171;-62
2023/03/20 03:11:24;;;;;;;12.27;7.90;;;;;;;11.30;60.60;101906.38;5076431;28;20048;-62
2023/03/20 03:13:55;;;;;;;13.20;7.35;;;;;;;11.29;60.33;101911.97;5078863;28;20053;-62
2023/03/20 03:16:27;;;;;;;14.02;8.38;;;;;;;11.28;60.54;101911.13;5080093;28;20060;-61
2023/03/20 03:19:03;;;;;;;11.57;7.97;;;;;;;11.26;60.72;101907.81;5084374;28;20080;-61
2023/03/20 03:21:32;;;;;;;14.38;7.97;;;;;;;11.28;60.59;101896.84;5078017;28;20062;-61
2023/03/20 03:24:01;;;;;;;12.32;7.45;;;;;;;11.27;60.60;101897.88;5078734;28;20048;-62
2023/03/20 03:26:34;;;;;;;12.77;7.75;;;;;;;11.25;60.58;101881.09;5081255;28;20068;-61
2023/03/20 03:29:07;;;;;;;14.00;7.68;;;;;;;11.23;60.58;101880.47;5079381;28;20135;-61
2023/03/20 03:31:37;;;;;;;14.15;8.25;;;;;;;11.23;60.56;101885.84;5076380;28;20060;-62
2023/03/20 03:34:06;;;;;;;13.32;8.82;;;;;;;11.22;60.68;101887.72;5078870;28;20045;-61
2023/03/20 03:36:43;;;;;;;15.07;7.72;;;;;;;11.20;60.83;101870.13;5073738;28;20128;-61
2023/03/20 03:39:22;;;;;;;10.18;6.50;;;;;;;11.18;60.73;101894.53;5076628;28;20052;-61
2023/03/20 03:41:56;;;;;;;13.18;8.05;;;;;;;11.17;60.58;101884.81;5084638;28;20041;-62
2023/03/20 03:44:31;;;;;;;12.93;7.93;;;;;;;11.15;60.66;101892.25;5083804;28;20072;-62
2023/03/20 03:47:06;;;;;;;14.10;7.50;;;;;;;11.15;60.73;101889.56;5081017;28;20072;-62
2023/03/20 03:49:37;;;;;;;13.75;7.47;;;;;;;11.13;60.64;101875.47;5082798;28;20068;-62
2023/03/20 03:52:09;;;;;;;15.43;7.53;;;;;;;11.03;60.74;101856.19;5083293;28;20041;-62
2023/03/20 03:54:43;;;;;;;12.45;7.32;;;;;;;11.12;60.82;101870.28;5084457;28;20135;-62
2023/03/20 03:57:16;;;;;;;13.35;8.18;;;;;;;11.11;60.71;101872.16;5081648;28;20041;-62
2023/03/20 03:59:49;;;;;;;10.55;6.80;;;;;;;11.11;60.56;101868.63;5078830;28;20144;-62
2023/03/20 04:02:20;;;;;;;14.50;7.57;;;;;;;11.10;60.73;101865.09;5073335;28;20127;-62
2023/03/20 04:04:51;;;;;;;12.10;7.40;;;;;;;11.09;60.51;101869.66;5081937;28;20084;-62
2023/03/20 04:07:20;;;;;;;12.05;7.25;;;;;;;11.07;60.44;101868.19;5075881;28;20041;-61
2023/03/20 04:09:48;;;;;;;10.90;6.93;;;;;;;11.03;60.71;101873.16;5084397;28;20036;-61
2023/03/20 04:12:33;;;;;;;13.30;7.30;;;;;;;11.06;60.44;101874.59;5083703;28;20108;-61
2023/03/20 04:15:01;;;;;;;11.60;7.28;;;;;;;11.04;60.40;101866.75;5079677;28;20099;-61
2023/03/20 04:17:30;;;;;;;12.20;6.75;;;;;;;10.97;60.46;101868.56;5084256;28;20056;-61
2023/03/20 04:19:58;;;;;;;11.52;7.47;;;;;;;11.02;60.54;101870.66;5079238;28;20079;-61
2023/03/20 04:22:26;;;;;;;11.32;7.15;;;;;;;11.00;60.49;101873.56;5068613;28;20044;-61
2023/03/20 04:24:54;;;;;;;11.15;7.03;;;;;;;11.00;60.67;101876.25;5066168;28;20052;-61
2023/03/20 04:27:23;;;;;;;16.65;7.75;;;;;;;10.98;60.57;101869.41;5080650;28;20067;-61
2023/03/20 04:29:50;;;;;;;13.20;6.78;;;;;;;10.98;60.46;101864.84;5083325;28;20568;-61
2023/03/20 04:32:18;;;;;;;13.30;6.82;;;;;;;10.97;60.48;101862.34;5078187;28;20099;-62
2023/03/20 04:34:46;;;;;;;11.13;7.65;;;;;;;10.95;60.51;101862.56;5081819;28;20044;-62
2023/03/20 04:37:14;;;;;;;10.15;6.10;;;;;;;10.94;60.49;101865.44;5072012;28;20049;-61
2023/03/20 04:39:42;;;;;;;12.93;6.47;;;;;;;10.94;60.41;101868.13;5075504;28;20054;-61
2023/03/20 04:42:11;;;;;;;8.98;5.95;;;;;;;10.92;60.40;101868.34;5076343;28;20076;-61
2023/03/20 04:44:40;;;;;;;9.75;6.18;;;;;;;10.93;60.43;101869.16;5082435;28;20052;-61
2023/03/20 04:47:08;;;;;;;10.45;5.68;;;;;;;10.93;60.40;101858.41;5081795;28;20052;-61
2023/03/20 04:49:36;;;;;;;12.52;5.93;;;;;;;10.91;60.58;101861.28;5076604;28;20135;-61
2023/03/20 04:52:04;;;;;;;13.23;7.03;;;;;;;10.90;60.49;101853.44;5071418;28;20052;-59
2023/03/20 04:54:32;;;;;;;10.00;5.90;;;;;;;10.89;60.53;101857.97;5082448;28;20055;-61
2023/03/20 04:56:59;;;;;;;10.05;5.78;;;;;;;10.89;60.43;101849.91;5076128;28;20049;-63
2023/03/20 04:59:27;;;;;;;9.63;6.20;;;;;;;10.88;60.32;101842.88;5075572;28;20495;-61
2023/03/20 05:01:56;;;;;;;10.43;6.05;;;;;;;10.86;60.36;101836.84;5082530;28;20088;-62
2023/03/20 05:04:24;;;;;;;12.02;6.47;;;;;;;10.87;60.40;101840.38;5081328;28;20108;-62
2023/03/20 05:06:52;;;;;;;11.40;5.85;;;;;;;10.87;60.35;101848.44;5083315;28;20044;-62
2023/03/20 05:09:20;;;;;;;10.05;6.47;;;;;;;10.85;60.32;101845.97;5079448;28;20119;-61
2023/03/20 05:11:47;;;;;;;12.35;7.15;;;;;;;10.85;60.40;101845.13;5082810;28;20075;-62
2023/03/20 05:14:15;;;;;;;9.52;5.35;;;;;;;10.74;60.35;101836.59;5077322;28;20040;-62
2023/03/20 05:16:43;;;;;;;13.70;6.45;;;;;;;10.84;60.31;101859.59;5076501;28;20114;-62
2023/03/20 05:19:12;;;;;;;9.55;5.80;;;;;;;10.83;60.46;101852.56;5070988;28;20413;-62
2023/03/20 05:21:40;;;;;;;11.80;6.22;;;;;;;10.81;60.40;101852.75;5079735;28;20047;-62
2023/03/20 05:24:08;;;;;;;9.52;6.13;;;;;;;10.81;60.57;101841.19;5078957;28;20059;-62
2023/03/20 05:26:36;;;;;;;12.02;6.03;;;;;;;10.79;60.49;101843.22;5074841;28;20052;-62
2023/03/20 05:29:04;;;;;;;10.82;5.85;;;;;;;10.77;60.50;101843.44;5078070;28;20058;-62
2023/03/20 05:31:31;;;;;;;11.93;6.35;;;;;;;10.77;60.22;101840.75;5076363;28;20523;-62
2023/03/20 05:33:59;;;;;;;9.80;6.70;;;;;;;10.76;60.63;101831.84;5077229;28;20075;-62
2023/03/20 05:36:28;;;;;;;11.32;5.60;;;;;;;10.74;60.45;101835.75;5075557;28;20159;-61
2023/03/20 05:38:57;;;;;;;7.25;4.60;;;;;;;10.69;60.51;101833.66;5078250;28;20052;-61
2023/03/20 05:41:24;;;;;;;11.15;5.85;;;;;;;10.73;60.46;101845.69;5078965;28;20075;-61
2023/03/20 05:43:52;;;;;;;11.75;6.45;;;;;;;10.72;60.60;101849.41;5080915;28;20485;-62
2023/03/20 05:46:21;;;;;;;11.15;6.35;;;;;;;10.72;60.56;101844.03;5080859;28;20057;-62
2023/03/20 05:48:49;;;;;;;10.48;5.53;;;;;;;10.72;60.52;101840.50;5079391;28;20044;-62
2023/03/20 05:51:17;;;;;;;9.60;5.30;;;;;;;10.71;60.54;101844.22;5074696;28;20444;-63
2023/03/20 05:53:46;;;;;;;10.10;5.50;;;;;;;10.70;60.61;101845.25;5074397;28;20148;-63
2023/03/20 05:56:13;;;;;;;7.53;4.68;;;;;;;10.70;60.66;101856.00;5080433;28;20047;-63
2023/03/20 05:58:41;;;;;;;7.97;5.10;;;;;;;10.69;60.46;101849.81;5082801;28;20055;-64
2023/03/20 06:01:09;;;;;;;8.52;5.18;;;;;;;10.68;60.48;101858.88;5068742;28;20060;-63
2023/03/20 06:03:37;;;;;;;11.90;5.20;;;;;;;10.68;60.68;101855.38;5075929;28;20048;-63
2023/03/20 06:06:05;;;;;;;11.15;5.75;;;;;;;10.67;60.53;101867.16;5081714;28;20056;-63
2023/03/20 06:08:35;;;;;;;9.13;5.10;;;;;;;10.65;60.86;101871.91;5068272;28;20074;-62
2023/03/20 06:11:05;;;;;;;12.40;6.05;;;;;;;10.66;60.64;101874.38;5076654;28;20072;-62
2023/03/20 06:13:32;;;;;;;12.07;5.57;;;;;;;10.65;60.76;101877.28;5066839;28;20045;-63
2023/03/20 06:16:00;;;;;;;9.70;5.15;;;;;;;10.63;60.72;101869.41;5076707;28;20055;-62
2023/03/20 06:18:28;;;;;;;11.55;5.00;;;;;;;10.65;60.66;101879.97;5073228;28;20049;-62
2023/03/20 06:20:57;;;;;;;10.35;5.13;;;;;;;10.63;60.64;101880.16;5066257;28;20291;-61
2023/03/20 06:23:25;;;;;;;12.00;5.20;;;;;;;10.63;60.68;101877.47;5081463;28;20049;-62
2023/03/20 06:25:53;;;;;;;9.13;5.07;;;;;;;10.66;60.63;101885.16;5077356;28;20056;-62
2023/03/20 06:28:22;;;;;;;9.80;5.00;;;;;;;10.65;60.52;101879.97;5072109;28;20101;-65
2023/03/20 06:30:52;;;;;;;9.25;5.47;;;;;;;10.64;60.60;101873.75;5062587;28;20082;-62
2023/03/20 06:33:20;;;;;;;8.82;5.15;;;;;;;10.64;60.56;101872.94;5072834;28;20405;-63
2023/03/20 06:35:49;;;;;;;9.25;5.03;;;;;;;10.66;60.65;101879.75;5081995;28;20067;-63
2023/03/20 06:38:16;;;;;;;8.35;4.40;;;;;;;10.66;60.66;101881.63;5080144;28;20100;-63
2023/03/20 06:40:44;;;;;;;10.60;5.20;;;;;;;10.65;60.53;101883.47;5075719;28;20052;-63
2023/03/20 06:43:12;;;;;;;11.05;4.57;;;;;;;10.64;60.74;101887.19;5081219;28;20131;-65
2023/03/20 06:45:41;;;;;;;9.15;4.75;;;;;;;10.64;60.61;101887.19;5077419;28;20413;-62
2023/03/20 06:48:10;;;;;;;12.55;4.78;;;;;;;10.63;60.53;101892.78;5077721;28;20071;-64
2023/03/20 06:50:38;;;;;;;11.50;6.10;;;;;;;10.62;60.60;101888.41;5080546;28;20070;-64
2023/03/20 06:53:05;;;;;;;11.15;4.95;;;;;;;10.62;60.71;101894.63;4723707;28;10000367;-62
2023/03/20 06:55:33;;;;;;;10.40;4.53;;;;;;;10.61;60.61;101909.09;5074780;28;20591;-65
2023/03/20 06:58:01;;;;;;;12.52;5.32;;;;;;;10.61;60.63;101948.59;5081177;28;20056;-66
2023/03/20 07:00:30;;;;;;;8.82;4.93;;;;;;;10.58;60.58;101916.72;5083847;28;20086;-64
2023/03/20 07:02:59;;;;;;;11.32;5.40;;;;;;;10.59;60.63;101927.28;5082271;28;20145;-62
2023/03/20 07:05:29;;;;;;;11.30;5.00;;;;;;;10.59;60.77;101921.06;5069481;28;20088;-65
2023/03/20 07:07:56;;;;;;;13.75;5.60;;;;;;;10.59;60.70;101934.50;5073630;28;20084;-65
2023/03/20 07:10:24;;;;;;;13.07;5.60;;;;;;;10.56;60.83;101930.34;5081690;28;20049;-63
2023/03/20 07:12:52;;;;;;;11.40;4.70;;;;;;;10.56;61.02;101934.91;5078140;28;20079;-64
2023/03/20 07:15:20;;;;;;;12.13;5.80;;;;;;;10.56;60.88;101918.78;5082023;28;20083;-64
2023/03/20 07:17:48;;;;;;;12.43;5.57;;;;;;;10.52;60.94;101930.94;5081717;28;20076;-64
2023/03/20 07:20:17;;;;;;;13.95;5.10;;;;;;;10.51;60.82;101927.41;5085864;28;20120;-63
2023/03/20 07:22:45;;;;;;;10.30;5.28;;;;;;;10.52;60.98;101939.00;5082780;28;20166;-63
2023/03/20 07:25:13;;;;;;;10.25;5.15;;;;;;;10.51;60.97;101938.19;5085257;28;20135;-63
2023/03/20 07:27:41;;;;;;;13.60;5.65;;;;;;;10.52;61.06;101942.53;5077071;28;20073;-63
2023/03/20 07:30:12;;;;;;;12.52;5.10;;;;;;;10.51;60.73;101940.88;5081171;28;20086;-64
2023/03/20 07:32:39;;;;;;;10.20;4.88;;;;;;;10.52;61.01;101941.69;5080340;28;20132;-63
2023/03/20 07:35:08;;;;;;;12.43;5.60;;;;;;;10.48;60.90;101935.88;5082053;28;20538;-64
2023/03/20 07:37:37;;;;;;;9.23;4.75;;;;;;;10.46;61.00;101937.94;5078725;28;20052;-64
2023/03/20 07:40:07;;;;;;;9.55;5.32;;;;;;;10.46;61.12;101943.31;5081266;28;20135;-64
2023/03/20 07:42:34;;;;;;;12.90;5.30;;;;;;;10.47;60.75;101942.28;5074929;28;20093;-64
2023/03/20 07:45:03;;;;;;;10.18;5.30;;;;;;;10.48;60.74;101940.41;5081465;28;20052;-64
2023/03/20 07:47:31;;;;;;;10.02;4.88;;;;;;;10.49;60.94;101942.09;5079690;28;20098;-65
2023/03/20 07:49:58;;;;;;;8.38;3.88;;;;;;;10.42;60.81;101920.53;5075797;28;20055;-64
2023/03/20 07:52:26;;;;;;;13.77;4.45;;;;;;;10.50;60.91;101936.50;5077191;28;20052;-64
2023/03/20 07:54:55;;;;;;;13.02;5.78;;;;;;;10.49;60.98;101940.22;5089139;28;20076;-64
2023/03/20 07:57:23;;;;;;;12.00;4.78;;;;;;;10.49;60.85;101942.09;5092957;28;20136;-63
2023/03/20 07:59:51;;;;;;;11.15;4.90;;;;;;;10.49;60.64;101950.16;5077819;28;20140;-63
2023/03/20 08:02:19;;;;;;;9.70;5.38;;;;;;;10.49;60.86;101947.47;5078407;28;20048;-64
2023/03/20 08:04:47;;;;;;;9.23;4.75;;;;;;;10.50;60.89;101947.25;5079801;28;20113;-64
2023/03/20 08:07:15;;;;;;;9.88;5.07;;;;;;;10.52;60.98;101944.38;5081256;28;20553;-64
2023/03/20 08:09:42;;;;;;;13.52;4.55;;;;;;;10.52;60.84;101944.38;5066622;28;20075;-64
2023/03/20 08:12:12;;;;;;;16.90;5.00;;;;;;;10.51;60.69;101943.53;5081641;28;20083;-63
2023/03/20 08:14:39;;;;;;;16.73;5.10;;;;;;;10.52;60.79;101939.00;5070203;28;20049;-64
2023/03/20 08:17:07;;;;;;;12.73;5.30;;;;;;;10.53;60.69;101943.34;5078702;28;20140;-65
2023/03/20 08:19:43;;;;;;;14.20;4.85;;;;;;;10.52;60.53;101941.69;5077012;28;20041;-64
2023/03/20 08:22:10;;;;;;;11.45;5.30;;;;;;;10.52;60.65;101942.53;5085061;28;20057;-64
2023/03/20 08:24:38;;;;;;;15.13;5.43;;;;;;;10.52;60.56;101939.00;5083904;28;20548;-64
2023/03/20 08:27:06;;;;;;;7.88;4.55;;;;;;;10.52;60.75;101949.75;5083214;28;20044;-64
2023/03/20 08:29:36;;;;;;;15.68;4.60;;;;;;;10.51;60.61;101946.25;5072456;28;20073;-64
2023/03/20 08:32:03;;;;;;;12.38;5.15;;;;;;;10.53;60.75;101951.41;5077471;28;20052;-68
2023/03/20 08:34:32;;;;;;;12.80;5.45;;;;;;;10.54;60.88;101945.03;5072422;28;20054;-63
2023/03/20 08:37:00;;;;;;;12.75;4.25;;;;;;;10.52;60.62;101942.53;5081573;28;20044;-63
2023/03/20 08:39:28;;;;;;;12.57;4.47;;;;;;;10.52;60.74;101947.06;5081785;28;20075;-63
2023/03/20 08:41:55;;;;;;;11.63;4.88;;;;;;;10.53;60.67;101943.34;5078000;28;20054;-63
2023/03/20 08:44:26;;;;;;;11.38;4.00;;;;;;;10.51;60.69;101937.34;5082175;28;20535;-63
2023/03/20 08:46:55;;;;;;;14.80;4.05;;;;;;;10.51;60.89;101940.88;5079860;28;20477;-63
2023/03/20 08:49:24;;;;;;;10.95;3.65;;;;;;;10.58;60.55;101943.59;5082491;28;20052;-62
2023/03/20 08:51:51;;;;;;;12.27;3.67;;;;;;;10.72;60.08;101948.88;5071501;28;20540;-62
2023/03/20 08:54:19;;;;;;;14.52;4.30;;;;;;;10.87;59.63;101935.34;5074163;28;20055;-62
2023/03/20 08:56:47;;;;;;;10.35;3.97;;;;;;;11.09;59.23;101938.78;5082883;28;20059;-62
2023/03/20 08:59:15;;;;;;;10.07;3.47;;;;;;;11.25;58.66;101933.06;5078684;28;20037;-62
2023/03/20 09:01:43;;;;;;;10.73;3.28;;;;;;;11.43;58.02;101939.78;5079891;28;20060;-62
2023/03/20 09:04:18;;;;;;;6.68;3.28;;;;;;;11.64;57.61;101934.25;5082527;28;20058;-62
2023/03/20 09:06:46;;;;;;;11.98;4.15;;;;;;;11.74;57.15;101932.84;5077655;28;20139;-61
2023/03/20 09:09:17;;;;;;;6.60;2.90;;;;;;;11.74;57.13;101937.41;5083268;28;20076;-61
2023/03/20 09:11:45;;;;;;;12.40;5.45;;;;;;;11.66;57.58;101933.03;5083263;28;20075;-62
2023/03/20 09:14:13;;;;;;;9.70;3.40;;;;;;;11.55;57.80;101928.22;5082705;28;20107;-62
2023/03/20 09:16:41;;;;;;;7.35;3.40;;;;;;;11.44;58.13;101950.34;5076130;28;20064;-62
2023/03/20 09:19:09;;;;;;;9.95;3.83;;;;;;;11.34;58.26;101949.88;5075728;28;20362;-62
2023/03/20 09:21:39;;;;;;;11.48;4.40;;;;;;;11.23;58.82;101955.81;5083782;28;20048;-62
2023/03/20 09:24:07;;;;;;;11.73;3.13;;;;;;;11.15;59.05;101954.13;5081062;28;20142;-62
2023/03/20 09:26:35;;;;;;;11.88;4.07;;;;;;;11.08;59.42;101954.09;5070006;28;20425;-62
2023/03/20 09:29:03;;;;;;;8.77;3.30;;;;;;;11.03;59.61;101961.09;5083190;28;20068;-62
2023/03/20 09:31:31;;;;;;;8.32;4.18;;;;;;;11.00;59.97;101961.47;5081538;28;20055;-62
2023/03/20 09:33:59;;;;;;;13.82;3.38;;;;;;;10.94;60.18;101971.16;5081639;28;20052;-61
2023/03/20 09:36:27;;;;;;;9.82;3.30;;;;;;;10.92;60.42;101965.16;5083596;28;20059;-62
2023/03/20 09:38:56;;;;;;;12.98;3.35;;;;;;;10.89;60.67;101975.47;5071532;28;20066;-62
2023/03/20 09:41:26;;;;;;;10.43;3.33;;;;;;;10.85;60.75;101975.03;5081639;28;20048;-62
2023/03/20 09:44:09;;;;;;;9.00;3.38;;;;;;;10.75;60.81;101953.88;5083521;28;20048;-62
2023/03/20 09:47:00;;;;;;;9.02;3.35;;;;;;;10.87;61.03;101974.84;5080471;28;20052;-62
2023/03/20 09:49:55;;;;;;;9.00;3.42;;;;;;;11.04;60.53;101968.13;5082326;28;20045;-63
2023/03/20 09:52:28;;;;;;;7.38;2.95;;;;;;;11.23;60.10;101969.28;5074027;28;20049;-62
2023/03/20 09:55:00;;;;;;;9.27;3.97;;;;;;;11.36;59.35;101956.72;5076405;28;20075;-63
2023/03/20 09:57:36;;;;;;;8.48;3.42;;;;;;;11.47;59.41;101963.41;5083707;28;20674;-63
2023/03/20 10:00:09;;;;;;;8.60;3.45;;;;;;;11.47;59.33;101960.72;5070413;28;20116;-63
2023/03/20 10:02:45;;;;;;;8.45;2.72;;;;;;;11.40;59.08;101963.38;5068320;28;20091;-63
2023/03/20 10:05:20;;;;;;;9.13;3.83;;;;;;;11.34;59.80;101960.66;5083223;28;20056;-62
2023/03/20 10:07:48;;;;;;;8.98;3.00;;;;;;;11.28;59.93;101959.59;5081970;28;20116;-63
2023/03/20 10:10:19;;;;;;;8.77;2.75;;;;;;;11.22;60.21;101962.25;5070763;28;20534;-62
2023/03/20 10:12:56;;;;;;;8.07;2.90;;;;;;;11.16;60.59;101958.47;5076522;28;20059;-62
2023/03/20 10:15:37;;;;;;;16.35;3.08;;;;;;;11.09;60.84;101961.13;5065227;28;20325;-62
2023/03/20 10:18:16;;;;;;;11.63;3.33;;;;;;;11.08;60.96;101953.25;5081813;28;20048;-62
2023/03/20 10:20:53;;;;;;;7.25;2.78;;;;;;;11.05;61.12;101948.28;5082647;28;20271;-62
2023/03/20 10:23:30;;;;;;;9.57;3.05;;;;;;;11.02;61.32;101941.44;5066529;28;20052;-63
2023/03/20 10:26:05;;;;;;;8.43;2.95;;;;;;;10.97;61.49;101937.66;5076157;28;20040;-63
2023/03/20 10:28:40;;;;;;;10.20;3.05;;;;;;;10.95;61.64;101940.56;5087458;28;20091;-63
2023/03/20 10:31:22;;;;;;;11.52;3.00;;;;;;;10.95;61.74;101939.72;5089043;28;20120;-62
2023/03/20 10:34:01;;;;;;;8.52;2.72;;;;;;;10.94;61.81;101936.22;5083995;28;20070;-62
2023/03/20 10:36:42;;;;;;;8.13;2.85;;;;;;;10.94;61.97;101935.38;5083636;28;20068;-60
2023/03/20 10:39:17;;;;;;;7.82;2.53;;;;;;;10.98;62.05;101925.88;4728393;28;9999957;-61
2023/03/20 10:41:53;;;;;;;6.07;3.10;;;;;;;11.12;61.44;101929.47;5081404;28;20048;-60
2023/03/20 10:44:29;;;;;;;11.40;3.38;;;;;;;11.31;61.13;101920.66;5083734;28;20281;-60
2023/03/20 10:47:00;;;;;;;9.05;2.83;;;;;;;11.49;60.54;101922.81;5074501;28;20052;-62
2023/03/20 10:49:34;;;;;;;9.55;3.05;;;;;;;11.67;60.25;101921.22;5084871;28;20127;-62
2023/03/20 10:52:04;;;;;;;9.02;3.03;;;;;;;12.03;59.16;101922.78;5069934;28;20053;-61
2023/03/20 10:54:36;;;;;;;10.40;3.08;;;;;;;12.18;58.72;101906.41;5072133;28;20429;-61
2023/03/20 10:57:10;;;;;;;8.45;2.72;;;;;;;12.42;57.75;101919.25;5087185;28;20044;-61
2023/03/20 10:59:42;;;;;;;9.52;2.90;;;;;;;12.50;57.48;101919.03;5087836;28;20104;-60
2023/03/20 11:02:11;;;;;;;9.90;2.75;;;;;;;12.61;57.33;101923.81;5074246;28;20418;-60
2023/03/20 11:04:39;;;;;;;7.05;2.97;;;;;;;12.65;57.13;101916.13;5081982;28;20070;-61
2023/03/20 11:07:18;;;;;;;9.27;2.72;;;;;;;12.77;57.00;101921.72;5081991;28;20222;-61
2023/03/20 11:09:45;;;;;;;8.07;2.92;;;;;;;12.69;57.00;101920.91;5067890;28;20052;-62
2023/03/20 11:12:19;;;;;;;11.35;2.58;;;;;;;12.68;57.96;101913.00;5065453;28;20071;-62
2023/03/20 11:14:47;;;;;;;7.60;2.47;;;;;;;12.51;57.69;101914.47;5079940;28;20052;-61
2023/03/20 11:17:16;;;;;;;7.35;3.00;;;;;;;12.33;58.35;101915.94;5085718;28;20116;-61
2023/03/20 11:19:44;;;;;;;10.05;3.38;;;;;;;12.20;59.09;101910.53;5078405;28;20067;-61
2023/03/20 11:22:24;;;;;;;8.90;2.90;;;;;;;12.08;59.59;101900.63;5084979;28;20078;-62
2023/03/20 11:24:54;;;;;;;9.63;3.08;;;;;;;12.09;60.78;101896.88;5083164;28;20056;-60
2023/03/20 11:27:27;;;;;;;7.72;3.20;;;;;;;12.22;60.07;101905.78;5065075;28;20053;-60
2023/03/20 11:29:56;;;;;;;9.98;2.92;;;;;;;12.44;59.06;101890.22;5072443;28;20118;-60
2023/03/20 11:32:29;;;;;;;10.52;3.22;;;;;;;12.56;58.69;101888.56;5084732;28;20052;-61
2023/03/20 11:35:09;;;;;;;11.20;3.70;;;;;;;12.67;58.27;101876.28;5072654;28;20053;-60
2023/03/20 11:37:44;;;;;;;5.78;2.20;;;;;;;12.79;57.80;101871.91;5080449;28;20053;-60